Time;durP1;ratioP1;P1;durP2;ratioP2;P2;SDS_P1;SDS_P2;PMS_P1;PMS_P2;Temp;Humidity;BMP_temperature;BMP_pressure;BME280_temperature;BME280_humidity;BME280_pressure;Samples;Min_cycle;Max_cycle;Signal;HPM_P1;HPM_P2
2023/09/30 00:01:27;;;;;;;16.90;4.40;;;13.00;99.90;;;;;;5073327;28;20076;-79
2023/09/30 00:03:53;;;;;;;17.27;4.10;;;13.00;99.90;;;;;;5073190;28;20055;-79
2023/09/30 00:06:19;;;;;;;17.00;4.45;;;13.00;99.90;;;;;;5073198;28;20373;-79
2023/09/30 00:08:45;;;;;;;19.45;5.22;;;13.00;99.90;;;;;;5073105;28;20037;-79
2023/09/30 00:11:11;;;;;;;14.50;4.18;;;13.00;99.90;;;;;;5074546;28;20047;-79
2023/09/30 00:13:36;;;;;;;19.20;4.35;;;13.00;99.90;;;;;;5072837;28;20044;-79
2023/09/30 00:16:02;;;;;;;18.48;3.90;;;13.00;99.90;;;;;;5074357;28;20047;-79
2023/09/30 00:18:28;;;;;;;15.85;4.18;;;12.90;99.90;;;;;;5074160;28;20063;-79
2023/09/30 00:20:57;;;;;;;12.88;4.07;;;12.90;99.90;;;;;;5073150;28;20041;-79
2023/09/30 00:23:23;;;;;;;14.93;4.53;;;12.90;99.90;;;;;;5073141;28;20052;-79
2023/09/30 00:25:52;;;;;;;14.23;3.70;;;12.90;99.90;;;;;;5074129;28;20041;-79
2023/09/30 00:28:18;;;;;;;14.80;3.80;;;12.90;99.90;;;;;;5072897;28;20059;-79
2023/09/30 00:30:47;;;;;;;15.00;4.15;;;12.90;99.90;;;;;;5074168;28;20072;-79
2023/09/30 00:33:13;;;;;;;11.90;3.90;;;12.80;99.90;;;;;;5072982;28;20056;-79
2023/09/30 00:35:39;;;;;;;13.18;3.70;;;12.80;99.90;;;;;;5072734;28;20463;-79
2023/09/30 00:38:04;;;;;;;20.65;5.25;;;12.80;99.90;;;;;;5074012;28;20055;-79
2023/09/30 00:40:30;;;;;;;17.17;4.47;;;12.80;99.90;;;;;;5072738;28;20055;-79
2023/09/30 00:42:56;;;;;;;16.73;4.28;;;12.80;99.90;;;;;;5073729;28;20055;-79
2023/09/30 00:45:21;;;;;;;14.15;3.85;;;12.80;99.90;;;;;;5072553;28;20044;-79
2023/09/30 00:47:47;;;;;;;19.75;4.63;;;12.80;99.90;;;;;;5072743;28;20147;-79
2023/09/30 00:50:13;;;;;;;14.20;4.00;;;12.80;99.90;;;;;;5073920;28;20029;-79
2023/09/30 00:52:39;;;;;;;9.73;3.85;;;12.80;99.90;;;;;;5073858;28;20411;-79
2023/09/30 00:55:06;;;;;;;21.85;4.93;;;12.80;99.90;;;;;;5073900;28;20037;-79
2023/09/30 00:57:32;;;;;;;23.42;4.05;;;12.80;99.90;;;;;;5072461;28;20048;-79
2023/09/30 00:59:59;;;;;;;21.42;3.97;;;12.80;99.90;;;;;;5072473;28;20040;-79
2023/09/30 01:02:25;;;;;;;14.50;3.58;;;12.80;99.90;;;;;;5073548;28;20507;-79
2023/09/30 01:04:51;;;;;;;13.65;3.70;;;12.80;99.90;;;;;;5072261;28;20057;-79
2023/09/30 01:07:17;;;;;;;11.25;3.42;;;12.80;99.90;;;;;;5073676;28;20050;-79
2023/09/30 01:09:43;;;;;;;18.15;4.22;;;12.80;99.90;;;;;;5073596;28;20037;-79
2023/09/30 01:12:09;;;;;;;18.05;4.45;;;12.90;99.90;;;;;;5072298;28;20392;-79
2023/09/30 01:14:35;;;;;;;16.40;3.85;;;12.80;99.90;;;;;;5072130;28;20049;-79
2023/09/30 01:17:01;;;;;;;18.20;3.92;;;12.90;99.90;;;;;;5072170;28;20052;-79
2023/09/30 01:19:29;;;;;;;12.27;4.00;;;12.80;99.90;;;;;;5073324;28;20051;-79
2023/09/30 01:21:58;;;;;;;15.65;4.60;;;12.80;99.90;;;;;;5072213;28;20060;-79
2023/09/30 01:24:25;;;;;;;18.20;4.15;;;12.80;99.90;;;;;;5073394;28;20373;-79
2023/09/30 01:26:51;;;;;;;20.15;4.55;;;12.80;99.90;;;;;;5075547;28;20131;-79
2023/09/30 01:29:17;;;;;;;14.55;4.45;;;12.70;99.90;;;;;;5076150;28;20128;-79
2023/09/30 01:31:42;;;;;;;15.50;4.10;;;12.80;99.90;;;;;;5077598;28;20048;-79
2023/09/30 01:34:09;;;;;;;18.10;4.68;;;12.70;99.90;;;;;;5077542;28;20089;-79
2023/09/30 01:36:35;;;;;;;12.15;4.63;;;12.70;99.90;;;;;;5076187;28;20493;-79
2023/09/30 01:39:02;;;;;;;16.00;4.70;;;12.70;99.90;;;;;;5076155;28;20539;-79
2023/09/30 01:41:28;;;;;;;15.43;4.45;;;12.70;99.90;;;;;;5091583;28;20510;-79
2023/09/30 01:43:54;;;;;;;13.73;4.63;;;12.70;99.90;;;;;;5097600;28;20044;-78
2023/09/30 01:46:19;;;;;;;16.40;4.93;;;12.70;99.90;;;;;;5096088;28;20436;-79
2023/09/30 01:48:45;;;;;;;14.05;4.10;;;12.70;99.90;;;;;;5097690;28;20094;-79
2023/09/30 01:51:11;;;;;;;12.63;4.18;;;12.70;99.90;;;;;;5097520;28;20086;-79
2023/09/30 01:53:36;;;;;;;12.65;4.00;;;12.60;99.90;;;;;;5097244;28;20109;-79
2023/09/30 01:56:02;;;;;;;14.60;4.28;;;12.70;99.90;;;;;;5097376;28;20063;-79
2023/09/30 01:58:28;;;;;;;17.40;4.60;;;12.60;99.90;;;;;;5097325;28;20384;-79
2023/09/30 02:00:54;;;;;;;16.65;4.90;;;12.60;99.90;;;;;;5095837;28;20132;-79
2023/09/30 02:03:19;;;;;;;17.48;4.85;;;12.60;99.90;;;;;;5097273;28;20123;-79
2023/09/30 02:05:45;;;;;;;24.08;5.13;;;12.70;99.90;;;;;;5095740;28;20070;-79
2023/09/30 02:08:10;;;;;;;11.88;4.72;;;12.70;99.90;;;;;;5095809;28;20133;-79
2023/09/30 02:10:36;;;;;;;15.25;5.20;;;12.70;99.90;;;;;;5096789;28;20483;-79
2023/09/30 02:13:05;;;;;;;18.35;5.07;;;12.60;99.90;;;;;;5095567;28;20040;-79
2023/09/30 02:15:31;;;;;;;16.75;4.82;;;12.60;99.90;;;;;;5095619;28;20483;-79
2023/09/30 02:18:00;;;;;;;18.55;6.60;;;12.70;99.90;;;;;;5096676;28;20046;-79
2023/09/30 02:20:30;;;;;;;16.73;4.82;;;12.70;99.90;;;;;;5096713;28;20065;-79
2023/09/30 02:22:58;;;;;;;13.23;4.60;;;12.70;99.90;;;;;;5096894;28;20044;-80
2023/09/30 02:25:25;;;;;;;12.85;4.78;;;12.70;99.90;;;;;;5096740;28;20478;-79
2023/09/30 02:27:51;;;;;;;12.05;4.63;;;12.60;99.90;;;;;;5095611;28;20392;-79
2023/09/30 02:30:17;;;;;;;13.10;4.45;;;12.60;99.90;;;;;;5095259;28;20479;-79
2023/09/30 02:32:45;;;;;;;15.02;4.28;;;12.70;99.90;;;;;;5096564;28;20059;-79
2023/09/30 02:35:11;;;;;;;17.83;4.40;;;12.70;99.90;;;;;;5095440;28;20118;-79
2023/09/30 02:37:37;;;;;;;17.02;4.90;;;12.70;99.90;;;;;;5095120;28;20123;-79
2023/09/30 02:40:10;;;;;;;14.63;5.22;;;12.70;99.90;;;;;;5095316;28;20047;-79
2023/09/30 02:42:40;;;;;;;14.23;4.82;;;12.60;99.90;;;;;;5095381;28;20043;-78
2023/09/30 02:45:07;;;;;;;11.75;4.63;;;12.60;99.90;;;;;;5096407;28;20075;-79
2023/09/30 02:47:34;;;;;;;18.05;4.95;;;12.70;99.90;;;;;;5095044;28;20542;-78
2023/09/30 02:50:01;;;;;;;14.95;4.40;;;12.70;99.90;;;;;;5095309;28;20054;-79
2023/09/30 02:52:28;;;;;;;17.48;5.20;;;12.60;99.90;;;;;;5094953;28;20360;-79
2023/09/30 02:54:54;;;;;;;12.63;4.78;;;12.60;99.90;;;;;;5094806;28;20426;-79
2023/09/30 02:57:20;;;;;;;22.20;4.95;;;12.60;99.90;;;;;;5095025;28;20048;-78
2023/09/30 02:59:47;;;;;;;14.38;4.25;;;12.60;99.90;;;;;;5094740;28;20059;-79
2023/09/30 03:02:13;;;;;;;14.27;4.90;;;12.70;99.90;;;;;;5096110;28;20044;-79
2023/09/30 03:04:38;;;;;;;15.82;5.25;;;12.70;99.90;;;;;;5096070;28;20365;-79
2023/09/30 03:07:08;;;;;;;17.48;4.43;;;12.70;99.90;;;;;;5094441;28;20475;-79
2023/09/30 03:09:35;;;;;;;12.75;3.95;;;12.70;99.90;;;;;;5094564;28;20051;-79
2023/09/30 03:12:02;;;;;;;18.27;4.82;;;12.70;99.90;;;;;;5094435;28;20109;-79
2023/09/30 03:14:30;;;;;;;12.43;4.65;;;12.70;99.90;;;;;;5094789;28;20040;-79
2023/09/30 03:16:57;;;;;;;17.67;5.60;;;12.70;99.90;;;;;;5094532;28;20040;-79
2023/09/30 03:19:23;;;;;;;18.50;4.97;;;12.70;99.90;;;;;;5095379;28;20514;-79
2023/09/30 03:21:49;;;;;;;13.05;4.88;;;12.70;99.90;;;;;;5095068;28;20083;-79
2023/09/30 03:24:16;;;;;;;12.98;4.32;;;12.70;99.90;;;;;;5096304;28;20119;-79
2023/09/30 03:26:42;;;;;;;14.80;4.45;;;12.60;99.90;;;;;;5095296;28;20052;-79
2023/09/30 03:29:08;;;;;;;15.52;5.28;;;12.60;99.90;;;;;;5094517;28;20085;-79
2023/09/30 03:31:35;;;;;;;10.75;4.50;;;12.60;99.90;;;;;;5095562;28;20051;-79
2023/09/30 03:34:04;;;;;;;18.13;4.90;;;12.60;99.90;;;;;;5094125;28;20368;-79
2023/09/30 03:36:30;;;;;;;16.60;4.90;;;12.60;99.90;;;;;;5094031;28;20394;-79
2023/09/30 03:38:57;;;;;;;12.65;4.10;;;12.60;99.90;;;;;;5095379;28;20032;-79
2023/09/30 03:41:22;;;;;;;16.80;4.82;;;12.60;99.90;;;;;;5094032;28;20089;-79
2023/09/30 03:43:49;;;;;;;14.43;5.13;;;12.60;99.90;;;;;;5095344;28;20036;-79
2023/09/30 03:46:15;;;;;;;17.92;4.78;;;12.60;99.90;;;;;;5093901;28;20048;-79
2023/09/30 03:48:42;;;;;;;16.38;4.70;;;12.50;99.90;;;;;;5095278;28;20138;-79
2023/09/30 03:51:14;;;;;;;16.02;4.90;;;12.60;99.90;;;;;;5095171;28;20101;-79
2023/09/30 03:53:44;;;;;;;15.30;4.35;;;12.60;99.90;;;;;;5093816;28;20051;-79
2023/09/30 03:56:11;;;;;;;17.17;4.57;;;12.50;99.90;;;;;;5095087;28;20177;-79
2023/09/30 03:58:38;;;;;;;16.23;4.80;;;12.50;99.90;;;;;;5094837;28;20042;-79
2023/09/30 04:01:04;;;;;;;16.88;5.10;;;12.50;99.90;;;;;;5093914;28;20532;-79
2023/09/30 04:03:33;;;;;;;18.42;4.80;;;12.50;99.90;;;;;;5093466;28;20150;-79
2023/09/30 04:05:59;;;;;;;14.13;4.43;;;12.50;99.90;;;;;;5093441;28;20055;-79
2023/09/30 04:08:24;;;;;;;13.65;4.20;;;12.50;99.90;;;;;;5094832;28;20043;-79
2023/09/30 04:10:50;;;;;;;11.45;4.25;;;12.50;99.90;;;;;;5094597;28;20044;-79
2023/09/30 04:13:16;;;;;;;15.75;4.78;;;12.50;99.90;;;;;;5093452;28;20073;-79
2023/09/30 04:15:44;;;;;;;11.55;3.80;;;12.50;99.90;;;;;;5094522;28;20118;-79
2023/09/30 04:18:11;;;;;;;12.05;3.90;;;12.40;99.90;;;;;;5093036;28;20051;-79
2023/09/30 04:20:39;;;;;;;14.25;3.75;;;12.40;99.90;;;;;;5093306;28;20044;-79
2023/09/30 04:23:06;;;;;;;15.02;3.58;;;12.40;99.90;;;;;;5094936;28;20040;-79
2023/09/30 04:25:32;;;;;;;12.13;3.63;;;12.40;99.90;;;;;;5093217;28;20134;-79
2023/09/30 04:27:57;;;;;;;11.38;3.70;;;12.40;99.90;;;;;;5094493;28;20173;-79
2023/09/30 04:30:23;;;;;;;14.25;3.60;;;12.40;99.90;;;;;;5094408;28;20036;-79
2023/09/30 04:32:49;;;;;;;14.48;3.88;;;12.40;99.90;;;;;;5092985;28;20563;-79
2023/09/30 04:35:15;;;;;;;15.02;3.90;;;12.40;99.90;;;;;;5093245;28;20086;-79
2023/09/30 04:37:40;;;;;;;11.57;4.22;;;12.40;99.90;;;;;;5094229;28;20052;-79
2023/09/30 04:40:19;;;;;;;14.18;4.10;;;12.40;99.90;;;;;;5094341;28;20123;-79
2023/09/30 04:42:49;;;;;;;12.48;4.72;;;12.40;99.90;;;;;;5093115;28;20064;-79
2023/09/30 04:45:22;;;;;;;14.75;4.53;;;12.40;99.90;;;;;;5092931;28;20048;-79
2023/09/30 04:47:50;;;;;;;11.98;4.15;;;12.50;99.90;;;;;;5094256;28;20119;-79
2023/09/30 04:50:16;;;;;;;17.02;4.60;;;12.40;99.90;;;;;;5092794;28;20040;-79
2023/09/30 04:52:44;;;;;;;13.73;4.18;;;12.40;99.90;;;;;;5092780;28;20040;-79
2023/09/30 04:55:12;;;;;;;10.23;3.20;;;12.40;99.90;;;;;;5092751;28;20394;-79
2023/09/30 04:57:38;;;;;;;9.95;3.75;;;12.50;99.90;;;;;;5094261;28;20051;-79
2023/09/30 05:00:10;;;;;;;12.48;4.18;;;12.40;99.90;;;;;;5092108;28;20048;-79
2023/09/30 05:02:36;;;;;;;10.77;3.45;;;12.40;99.90;;;;;;5092944;28;20075;-79
2023/09/30 05:05:05;;;;;;;9.85;3.92;;;12.40;99.90;;;;;;5093822;28;20086;-79
2023/09/30 05:07:31;;;;;;;8.82;3.75;;;12.40;99.90;;;;;;5092621;28;20051;-79
2023/09/30 05:09:57;;;;;;;17.60;4.40;;;12.40;99.90;;;;;;5092902;28;20055;-79
2023/09/30 05:12:23;;;;;;;14.55;4.22;;;12.40;99.90;;;;;;5092677;28;20494;-79
2023/09/30 05:14:49;;;;;;;16.83;4.18;;;12.30;99.90;;;;;;5092601;28;20040;-79
2023/09/30 05:17:15;;;;;;;15.10;4.53;;;12.30;99.90;;;;;;5092653;28;20048;-79
2023/09/30 05:19:42;;;;;;;11.25;4.40;;;12.30;99.90;;;;;;5092301;28;20049;-79
2023/09/30 05:22:12;;;;;;;15.80;4.35;;;12.30;99.90;;;;;;5093773;28;20062;-79
2023/09/30 05:24:37;;;;;;;13.38;5.20;;;12.30;99.90;;;;;;5093587;28;20119;-79
2023/09/30 05:27:03;;;;;;;13.10;4.70;;;12.30;99.90;;;;;;5093610;28;20571;-79
2023/09/30 05:29:29;;;;;;;16.33;4.70;;;12.30;99.90;;;;;;5092402;28;20044;-79
2023/09/30 05:31:56;;;;;;;16.13;5.22;;;12.30;99.90;;;;;;5092200;28;20043;-78
2023/09/30 05:34:21;;;;;;;18.63;5.05;;;12.30;99.90;;;;;;5091973;28;20101;-79
2023/09/30 05:36:47;;;;;;;17.30;5.07;;;12.20;99.90;;;;;;5091334;28;20044;-78
2023/09/30 05:39:14;;;;;;;13.15;5.07;;;12.20;99.90;;;;;;5093103;28;20388;-79
2023/09/30 05:41:40;;;;;;;14.45;5.15;;;12.20;99.90;;;;;;5091964;28;20127;-79
2023/09/30 05:44:08;;;;;;;15.10;5.00;;;12.30;99.90;;;;;;5092158;28;20124;-79
2023/09/30 05:46:34;;;;;;;14.68;4.95;;;12.20;99.90;;;;;;5093334;28;20099;-79
2023/09/30 05:48:59;;;;;;;17.73;5.00;;;12.20;99.90;;;;;;5092188;28;20075;-79
2023/09/30 05:51:26;;;;;;;15.95;4.65;;;12.20;99.90;;;;;;5093376;28;20057;-79
2023/09/30 05:53:52;;;;;;;18.45;4.25;;;12.20;99.90;;;;;;5093360;28;20084;-79
2023/09/30 05:56:20;;;;;;;19.92;4.15;;;12.30;99.90;;;;;;5091959;28;20372;-79
2023/09/30 05:58:46;;;;;;;18.70;5.72;;;12.20;99.90;;;;;;5093456;28;20036;-79
2023/09/30 06:01:12;;;;;;;19.92;4.75;;;12.20;99.90;;;;;;5091927;28;20169;-79
2023/09/30 06:03:41;;;;;;;16.88;4.88;;;12.20;99.90;;;;;;5093304;28;20121;-79
2023/09/30 06:06:12;;;;;;;18.10;4.20;;;12.20;99.90;;;;;;5091637;28;20072;-79
2023/09/30 06:08:38;;;;;;;11.52;3.83;;;12.20;99.90;;;;;;5091800;28;20112;-79
2023/09/30 06:11:04;;;;;;;13.30;5.03;;;12.20;99.90;;;;;;5093437;28;20127;-79
2023/09/30 06:13:31;;;;;;;13.65;3.53;;;12.20;99.90;;;;;;5095513;28;20170;-79
2023/09/30 06:15:57;;;;;;;14.73;3.67;;;12.30;99.90;;;;;;5097005;28;20047;-79
2023/09/30 06:18:23;;;;;;;13.32;4.55;;;12.20;99.90;;;;;;5096686;28;20052;-79
2023/09/30 06:20:50;;;;;;;10.15;4.55;;;12.30;99.90;;;;;;5096714;28;20040;-79
2023/09/30 06:23:17;;;;;;;20.35;4.90;;;12.30;99.90;;;;;;5095571;28;20044;-79
2023/09/30 06:25:43;;;;;;;21.75;3.85;;;12.30;99.90;;;;;;5095171;28;20040;-79
2023/09/30 06:28:09;;;;;;;12.15;3.67;;;12.30;99.90;;;;;;5095299;28;20052;-80
2023/09/30 06:30:35;;;;;;;15.98;3.58;;;12.30;99.90;;;;;;5095227;28;20064;-79
2023/09/30 06:33:07;;;;;;;25.05;4.75;;;12.30;99.90;;;;;;5095312;28;20137;-80
2023/09/30 06:35:37;;;;;;;15.60;4.23;;;12.30;99.90;;;;;;5096699;28;20038;-80
2023/09/30 06:38:03;;;;;;;22.20;5.10;;;12.30;99.90;;;;;;5096427;28;20334;-80
2023/09/30 06:40:28;;;;;;;16.15;4.53;;;12.40;99.90;;;;;;5092354;28;20080;-79
2023/09/30 06:42:54;;;;;;;16.50;4.75;;;12.40;99.90;;;;;;5083612;28;20088;-79
2023/09/30 06:45:21;;;;;;;16.08;4.57;;;12.40;99.90;;;;;;5074440;28;20094;-78
2023/09/30 06:47:47;;;;;;;15.02;4.50;;;12.50;99.90;;;;;;5074713;28;20113;-79
2023/09/30 06:50:16;;;;;;;15.57;4.55;;;12.50;99.90;;;;;;5074818;28;20040;-78
2023/09/30 06:52:45;;;;;;;18.13;4.18;;;12.50;99.90;;;;;;5074406;28;20070;-79
2023/09/30 06:55:13;;;;;;;16.02;5.40;;;12.60;99.90;;;;;;5074435;28;20048;-79
2023/09/30 06:57:40;;;;;;;12.63;5.15;;;12.60;99.90;;;;;;5074307;28;20075;-78
2023/09/30 07:00:09;;;;;;;13.95;4.50;;;12.70;99.90;;;;;;5074330;28;20040;-79
2023/09/30 07:02:36;;;;;;;14.77;4.85;;;12.70;99.90;;;;;;5075639;28;20040;-79
2023/09/30 07:05:05;;;;;;;16.00;4.20;;;12.70;99.90;;;;;;5074445;28;20040;-79
2023/09/30 07:07:31;;;;;;;13.77;4.28;;;12.70;99.90;;;;;;5075605;28;20051;-79
2023/09/30 07:09:56;;;;;;;11.23;4.32;;;12.80;99.90;;;;;;5075730;28;20153;-79
2023/09/30 07:12:22;;;;;;;13.85;4.90;;;12.90;99.90;;;;;;5074051;28;20044;-79
2023/09/30 07:14:48;;;;;;;15.57;4.65;;;12.90;99.90;;;;;;5074150;28;20064;-79
2023/09/30 07:17:14;;;;;;;15.38;4.70;;;12.90;99.90;;;;;;5074141;28;20430;-79
2023/09/30 07:19:39;;;;;;;16.88;4.15;;;13.00;99.90;;;;;;5075022;28;20527;-79
2023/09/30 07:22:05;;;;;;;17.70;4.65;;;13.10;99.90;;;;;;5073849;28;20060;-79
2023/09/30 07:24:31;;;;;;;16.92;4.18;;;13.10;99.90;;;;;;5073318;28;20056;-79
2023/09/30 07:26:56;;;;;;;12.55;5.20;;;13.20;99.90;;;;;;5073671;28;20407;-79
2023/09/30 07:29:23;;;;;;;13.55;4.22;;;13.20;99.90;;;;;;5073559;28;20063;-79
2023/09/30 07:31:50;;;;;;;12.73;3.63;;;13.30;99.90;;;;;;5075180;28;20048;-76
2023/09/30 07:34:16;;;;;;;18.33;4.05;;;13.40;99.90;;;;;;5073507;28;20127;-79
2023/09/30 07:36:42;;;;;;;16.15;4.18;;;13.40;99.90;;;;;;5074806;28;20182;-79
2023/09/30 07:39:11;;;;;;;18.95;3.65;;;13.50;99.90;;;;;;5074731;28;20043;-79
2023/09/30 07:41:42;;;;;;;17.10;4.75;;;13.50;99.90;;;;;;5073440;28;20127;-79
2023/09/30 07:44:09;;;;;;;18.05;4.57;;;13.60;99.90;;;;;;5074556;28;20045;-78
2023/09/30 07:46:35;;;;;;;26.23;5.25;;;13.70;99.90;;;;;;5073256;28;20518;-78
2023/09/30 07:49:03;;;;;;;14.20;4.22;;;13.80;99.90;;;;;;5073441;28;20553;-77
2023/09/30 07:51:29;;;;;;;12.82;4.03;;;13.80;99.90;;;;;;5074869;28;20159;-79
2023/09/30 07:53:56;;;;;;;22.27;5.25;;;13.90;99.90;;;;;;5073556;28;20040;-78
2023/09/30 07:56:22;;;;;;;18.83;5.03;;;13.90;99.90;;;;;;5073317;28;20075;-79
2023/09/30 07:58:48;;;;;;;15.95;5.13;;;14.00;99.90;;;;;;5074303;28;20499;-78
2023/09/30 08:01:14;;;;;;;16.92;4.43;;;14.00;99.90;;;;;;5074510;28;20045;-78
2023/09/30 08:03:40;;;;;;;11.13;4.38;;;14.10;99.90;;;;;;5074541;28;20032;-79
2023/09/30 08:06:08;;;;;;;21.05;4.82;;;14.20;99.90;;;;;;5074445;28;20368;-79
2023/09/30 08:08:35;;;;;;;15.35;4.18;;;14.20;99.90;;;;;;5073088;28;20056;-79
2023/09/30 08:11:00;;;;;;;18.40;4.00;;;14.30;99.90;;;;;;5073016;28;20471;-79
2023/09/30 08:13:27;;;;;;;13.57;4.63;;;14.30;99.90;;;;;;5074411;28;20040;-79
2023/09/30 08:15:53;;;;;;;16.27;4.10;;;14.40;99.90;;;;;;5072948;28;20075;-78
2023/09/30 08:18:19;;;;;;;15.02;3.58;;;14.40;99.90;;;;;;5073693;28;20402;-78
2023/09/30 08:20:45;;;;;;;17.58;4.07;;;14.50;99.90;;;;;;5072687;28;20036;-78
2023/09/30 08:23:11;;;;;;;17.75;4.28;;;14.60;99.90;;;;;;5072414;28;20106;-80
2023/09/30 08:25:37;;;;;;;23.92;4.20;;;14.60;99.90;;;;;;5084601;28;20044;-78
2023/09/30 08:28:04;;;;;;;14.45;3.30;;;14.70;99.90;;;;;;5073811;28;20051;-77
2023/09/30 08:30:30;;;;;;;13.52;3.70;;;14.80;99.90;;;;;;5072717;28;20064;-77
2023/09/30 08:32:56;;;;;;;19.02;4.00;;;14.90;99.90;;;;;;5073991;28;20056;-78
2023/09/30 08:35:21;;;;;;;19.60;4.13;;;14.90;99.90;;;;;;5073721;28;20190;-78
2023/09/30 08:37:50;;;;;;;18.90;3.83;;;15.00;99.90;;;;;;5072566;28;20518;-77
2023/09/30 08:40:20;;;;;;;17.83;3.85;;;15.10;99.90;;;;;;5072418;28;20404;-77
2023/09/30 08:42:51;;;;;;;17.38;3.67;;;15.20;99.90;;;;;;5073775;28;20047;-77
2023/09/30 08:45:18;;;;;;;19.85;3.95;;;15.20;99.90;;;;;;5073723;28;20040;-77
2023/09/30 08:47:44;;;;;;;19.50;3.60;;;15.30;99.90;;;;;;5073753;28;20037;-77
2023/09/30 08:50:10;;;;;;;17.30;3.78;;;15.40;99.90;;;;;;5072418;28;20484;-77
2023/09/30 08:52:44;;;;;;;17.83;3.75;;;15.50;99.90;;;;;;5073467;28;20055;-77
2023/09/30 08:55:10;;;;;;;19.08;4.28;;;15.50;99.90;;;;;;5073587;28;20048;-77
2023/09/30 08:57:41;;;;;;;17.35;3.50;;;15.60;99.90;;;;;;5072437;28;20056;-77
2023/09/30 09:00:11;;;;;;;18.58;3.85;;;15.70;99.90;;;;;;5073673;28;20036;-77
2023/09/30 09:02:38;;;;;;;17.88;3.80;;;15.80;99.90;;;;;;5072057;28;20131;-77
2023/09/30 09:05:04;;;;;;;13.48;3.10;;;15.80;99.90;;;;;;5071989;28;20494;-77
2023/09/30 09:07:33;;;;;;;12.38;3.65;;;16.00;99.90;;;;;;5073146;28;20044;-77
2023/09/30 09:10:10;;;;;;;13.30;4.05;;;16.00;99.90;;;;;;5072153;28;20038;-77
2023/09/30 09:12:38;;;;;;;22.08;4.00;;;16.10;99.90;;;;;;5072139;28;20042;-77
2023/09/30 09:15:19;;;;;;;16.50;3.17;;;16.20;99.90;;;;;;5073180;28;20051;-77
2023/09/30 09:17:45;;;;;;;14.35;3.03;;;16.20;99.90;;;;;;5071821;28;20055;-77
2023/09/30 09:20:21;;;;;;;19.17;3.13;;;16.30;99.90;;;;;;5073449;28;20048;-78
2023/09/30 09:22:53;;;;;;;17.63;3.25;;;16.30;99.90;;;;;;5067595;28;20053;-78
2023/09/30 09:25:22;;;;;;;13.73;2.30;;;16.40;99.90;;;;;;5069980;28;20067;-78
2023/09/30 09:27:55;;;;;;;12.75;2.55;;;16.50;99.90;;;;;;5088717;28;20048;-79
2023/09/30 09:30:22;;;;;;;15.88;3.20;;;16.60;99.90;;;;;;5093118;28;20051;-78
2023/09/30 09:33:14;;;;;;;15.70;3.20;;;16.70;99.90;;;;;;5071919;28;20052;-77
2023/09/30 09:35:40;;;;;;;15.88;2.97;;;16.70;99.90;;;;;;5069982;28;20068;-77
2023/09/30 09:38:07;;;;;;;18.20;3.17;;;16.80;99.90;;;;;;5073154;28;20037;-77
2023/09/30 09:40:40;;;;;;;14.40;3.67;;;16.90;99.90;;;;;;5073583;28;20051;-77
2023/09/30 09:43:06;;;;;;;14.38;2.67;;;16.90;99.90;;;;;;5073090;28;20051;-77
2023/09/30 09:45:37;;;;;;;14.70;3.10;;;17.00;99.90;;;;;;5073087;28;20045;-77
2023/09/30 09:48:04;;;;;;;14.63;2.63;;;17.20;99.90;;;;;;5075150;28;20510;-77
2023/09/30 09:50:33;;;;;;;11.10;2.33;;;17.20;99.90;;;;;;5076750;28;20437;-78
2023/09/30 09:53:00;;;;;;;11.45;2.67;;;17.20;99.90;;;;;;5075804;28;20048;-79
2023/09/30 09:55:27;;;;;;;12.90;2.33;;;17.20;99.90;;;;;;5075427;28;20496;-77
2023/09/30 09:57:54;;;;;;;11.02;2.00;;;17.20;99.90;;;;;;5077394;28;20067;-78
2023/09/30 10:00:26;;;;;;;14.15;2.05;;;17.20;99.90;;;;;;5076840;28;20041;-77
2023/09/30 10:02:52;;;;;;;18.70;2.80;;;17.10;99.90;;;;;;5076475;28;20491;-77
2023/09/30 10:05:19;;;;;;;16.30;2.22;;;17.20;99.90;;;;;;5075204;28;20045;-78
2023/09/30 10:07:55;;;;;;;18.50;2.67;;;17.20;99.90;;;;;;5075181;28;20850;-78
2023/09/30 10:10:23;;;;;;;13.02;2.25;;;17.30;99.90;;;;;;5075254;28;20503;-77
2023/09/30 10:12:49;;;;;;;11.25;2.25;;;17.40;99.90;;;;;;5076605;28;20105;-78
2023/09/30 10:15:24;;;;;;;15.50;2.60;;;17.30;99.90;;;;;;5075018;28;20407;-77
2023/09/30 10:18:03;;;;;;;8.68;1.95;;;17.30;99.90;;;;;;5076018;28;20502;-77
2023/09/30 10:20:31;;;;;;;18.83;2.58;;;17.30;99.90;;;;;;5076334;28;20048;-78
2023/09/30 10:23:21;;;;;;;15.07;2.33;;;17.30;99.90;;;;;;5076447;28;20047;-78
2023/09/30 10:25:49;;;;;;;12.38;2.10;;;17.30;99.90;;;;;;5076298;28;20037;-78
2023/09/30 10:28:33;;;;;;;12.30;2.95;;;17.30;99.90;;;;;;5074408;28;20056;-78
2023/09/30 10:31:19;;;;;;;14.55;2.45;;;17.40;99.90;;;;;;5076655;28;20074;-78
2023/09/30 10:34:02;;;;;;;10.30;2.20;;;17.50;99.90;;;;;;5078238;28;20048;-77
2023/09/30 10:36:29;;;;;;;12.60;1.90;;;17.60;99.90;;;;;;5088745;28;20054;-75
2023/09/30 10:38:55;;;;;;;13.25;3.40;;;17.70;99.90;;;;;;5096126;28;20036;-77
2023/09/30 10:41:45;;;;;;;11.25;2.42;;;17.80;99.90;;;;;;5096057;28;20032;-77
2023/09/30 10:44:26;;;;;;;6.47;1.77;;;17.90;99.90;;;;;;5094900;28;20048;-78
2023/09/30 10:46:57;;;;;;;15.88;2.05;;;18.00;99.90;;;;;;5096030;28;20048;-78
2023/09/30 10:49:22;;;;;;;13.05;2.22;;;18.10;99.90;;;;;;5096150;28;20054;-78
2023/09/30 10:51:52;;;;;;;11.52;2.10;;;18.10;99.90;;;;;;5094755;28;20131;-78
2023/09/30 10:54:26;;;;;;;10.60;2.42;;;18.20;99.90;;;;;;5094861;28;20101;-78
2023/09/30 10:56:52;;;;;;;12.57;2.72;;;18.20;99.90;;;;;;5096096;28;20114;-77
2023/09/30 10:59:31;;;;;;;12.13;1.73;;;18.30;99.90;;;;;;5093649;28;20089;-78
2023/09/30 11:01:57;;;;;;;11.50;2.03;;;18.30;99.90;;;;;;5096016;28;20059;-78
2023/09/30 11:04:23;;;;;;;14.10;2.13;;;18.30;99.90;;;;;;5094314;28;20127;-77
2023/09/30 11:06:51;;;;;;;9.95;2.13;;;18.30;99.90;;;;;;5095739;28;20150;-78
2023/09/30 11:09:19;;;;;;;10.88;2.00;;;18.30;99.90;;;;;;5094497;28;20052;-77
2023/09/30 11:11:50;;;;;;;9.25;2.25;;;18.40;99.90;;;;;;5095495;28;20075;-78
2023/09/30 11:14:31;;;;;;;8.82;2.38;;;18.40;99.90;;;;;;5094546;28;20046;-78
2023/09/30 11:17:01;;;;;;;8.90;1.98;;;18.50;99.90;;;;;;5094394;28;20044;-77
2023/09/30 11:19:48;;;;;;;10.27;1.80;;;18.60;99.90;;;;;;5095283;28;20059;-78
2023/09/30 11:22:16;;;;;;;14.00;2.20;;;18.70;99.90;;;;;;5095400;28;20485;-78
2023/09/30 11:24:41;;;;;;;6.57;2.15;;;18.70;99.90;;;;;;5093531;28;20048;-78
2023/09/30 11:27:08;;;;;;;12.48;2.05;;;18.70;99.90;;;;;;5095343;28;20051;-78
2023/09/30 11:29:34;;;;;;;13.93;2.22;;;18.80;99.90;;;;;;5094069;28;20073;-77
2023/09/30 11:32:01;;;;;;;9.75;2.22;;;18.90;99.90;;;;;;5095359;28;20048;-78
2023/09/30 11:34:37;;;;;;;12.30;2.85;;;18.90;99.90;;;;;;5095142;28;20048;-78
2023/09/30 11:37:03;;;;;;;12.50;2.42;;;19.00;99.90;;;;;;5093735;28;20413;-78
2023/09/30 11:39:30;;;;;;;10.70;2.00;;;19.00;99.90;;;;;;5092998;28;20048;-77
2023/09/30 11:41:57;;;;;;;8.30;1.92;;;18.90;99.90;;;;;;5094850;28;20507;-78
2023/09/30 11:44:26;;;;;;;8.80;1.52;;;19.00;99.90;;;;;;5093693;28;20209;-76
2023/09/30 11:47:00;;;;;;;9.80;1.90;;;19.00;99.90;;;;;;5094848;28;20047;-79
2023/09/30 11:49:39;;;;;;;12.50;2.75;;;19.10;99.90;;;;;;5093842;28;20040;-77
2023/09/30 11:52:09;;;;;;;13.85;2.80;;;19.20;99.90;;;;;;5093664;28;20403;-78
2023/09/30 11:54:42;;;;;;;11.93;1.83;;;19.20;99.90;;;;;;5093550;28;20125;-78
2023/09/30 11:57:12;;;;;;;13.32;2.30;;;19.20;99.90;;;;;;5094909;28;20046;-78
2023/09/30 11:59:40;;;;;;;10.85;2.10;;;19.20;99.90;;;;;;5093644;28;20085;-78
2023/09/30 12:02:06;;;;;;;12.10;1.95;;;19.20;99.90;;;;;;5093291;28;20430;-78
2023/09/30 12:04:32;;;;;;;10.80;1.85;;;19.30;99.90;;;;;;5094675;28;20040;-78
2023/09/30 12:06:58;;;;;;;12.65;2.80;;;19.20;99.90;;;;;;5093321;28;20047;-77
2023/09/30 12:09:26;;;;;;;15.65;2.15;;;19.30;99.90;;;;;;5093192;28;20093;-78
2023/09/30 12:11:53;;;;;;;13.40;2.13;;;19.20;99.90;;;;;;5093173;28;20040;-84
2023/09/30 12:14:20;;;;;;;12.13;2.15;;;19.20;99.90;;;;;;5094304;28;20372;-78
2023/09/30 12:16:47;;;;;;;11.38;1.80;;;19.20;99.90;;;;;;5094577;28;20128;-77
2023/09/30 12:19:17;;;;;;;12.35;2.28;;;19.20;99.90;;;;;;5092912;28;20064;-78
2023/09/30 12:21:46;;;;;;;12.40;2.22;;;19.10;99.90;;;;;;5093047;28;20502;-78
2023/09/30 12:24:16;;;;;;;11.88;2.00;;;19.00;99.90;;;;;;5093162;28;20054;-75
2023/09/30 12:26:48;;;;;;;11.02;2.33;;;19.00;99.90;;;;;;5094328;28;20052;-78
2023/09/30 12:29:18;;;;;;;12.43;2.47;;;19.00;99.90;;;;;;5093019;28;20146;-78
2023/09/30 12:31:47;;;;;;;15.02;1.85;;;18.90;99.90;;;;;;5094038;28;20526;-78
2023/09/30 12:34:13;;;;;;;45.28;4.35;;;18.90;99.90;;;;;;5092903;28;20113;-78
2023/09/30 12:36:39;;;;;;;10.45;1.70;;;18.90;99.90;;;;;;5092720;28;20454;-78
2023/09/30 12:39:11;;;;;;;13.05;2.30;;;18.80;99.90;;;;;;5093956;28;20040;-78
2023/09/30 12:41:41;;;;;;;17.10;3.15;;;18.80;99.90;;;;;;5092940;28;20075;-78